sensor_id;sensor_type;location;lat;lon;timestamp;P1;durP1;ratioP1;P2;durP2;ratioP2
71464;SDS011;59274;49.874;9.154;2024-03-23T00:54:14;18.33;;;10.35;;
71464;SDS011;59274;49.874;9.154;2024-03-23T00:56:40;18.70;;;9.93;;
71464;SDS011;59274;49.874;9.154;2024-03-23T00:59:05;20.75;;;10.15;;
71464;SDS011;59274;49.874;9.154;2024-03-23T01:01:31;16.40;;;9.03;;
71464;SDS011;59274;49.874;9.154;2024-03-23T01:03:56;15.23;;;8.83;;
71464;SDS011;59274;49.874;9.154;2024-03-23T01:06:21;14.07;;;8.00;;
71464;SDS011;59274;49.874;9.154;2024-03-23T01:08:47;14.57;;;7.90;;
71464;SDS011;59274;49.874;9.154;2024-03-23T01:11:12;13.98;;;8.15;;
71464;SDS011;59274;49.874;9.154;2024-03-23T01:13:38;16.20;;;8.43;;
71464;SDS011;59274;49.874;9.154;2024-03-23T01:16:03;18.40;;;8.63;;
71464;SDS011;59274;49.874;9.154;2024-03-23T01:18:29;17.67;;;8.90;;
71464;SDS011;59274;49.874;9.154;2024-03-23T01:20:54;15.95;;;8.52;;
71464;SDS011;59274;49.874;9.154;2024-03-23T01:23:20;13.40;;;7.90;;
71464;SDS011;59274;49.874;9.154;2024-03-23T01:25:55;17.27;;;8.67;;
71464;SDS011;59274;49.874;9.154;2024-03-23T01:28:21;15.05;;;7.90;;
71464;SDS011;59274;49.874;9.154;2024-03-23T01:30:46;17.40;;;7.82;;
71464;SDS011;59274;49.874;9.154;2024-03-23T01:33:12;14.03;;;8.50;;
71464;SDS011;59274;49.874;9.154;2024-03-23T01:35:38;13.38;;;7.88;;
71464;SDS011;59274;49.874;9.154;2024-03-23T01:38:03;15.57;;;7.90;;
71464;SDS011;59274;49.874;9.154;2024-03-23T01:40:29;13.80;;;7.63;;
71464;SDS011;59274;49.874;9.154;2024-03-23T01:42:57;12.25;;;7.22;;
71464;SDS011;59274;49.874;9.154;2024-03-23T01:45:26;17.15;;;7.13;;
71464;SDS011;59274;49.874;9.154;2024-03-23T01:47:52;12.87;;;7.00;;
71464;SDS011;59274;49.874;9.154;2024-03-23T01:50:18;12.63;;;7.72;;
71464;SDS011;59274;49.874;9.154;2024-03-23T01:52:44;16.70;;;7.60;;
71464;SDS011;59274;49.874;9.154;2024-03-23T01:55:10;12.90;;;7.13;;
71464;SDS011;59274;49.874;9.154;2024-03-23T01:57:36;15.10;;;7.93;;
71464;SDS011;59274;49.874;9.154;2024-03-23T02:00:02;15.50;;;7.55;;
71464;SDS011;59274;49.874;9.154;2024-03-23T02:02:28;14.90;;;8.20;;
71464;SDS011;59274;49.874;9.154;2024-03-23T02:04:53;17.47;;;9.17;;
71464;SDS011;59274;49.874;9.154;2024-03-23T02:07:18;14.40;;;7.77;;
71464;SDS011;59274;49.874;9.154;2024-03-23T02:09:44;13.53;;;7.27;;
71464;SDS011;59274;49.874;9.154;2024-03-23T02:12:09;15.20;;;7.73;;
71464;SDS011;59274;49.874;9.154;2024-03-23T02:14:44;13.02;;;7.97;;
71464;SDS011;59274;49.874;9.154;2024-03-23T02:17:09;13.77;;;7.32;;
71464;SDS011;59274;49.874;9.154;2024-03-23T02:19:35;12.85;;;7.20;;
71464;SDS011;59274;49.874;9.154;2024-03-23T02:22:00;17.30;;;7.82;;
71464;SDS011;59274;49.874;9.154;2024-03-23T02:24:26;14.97;;;7.57;;
71464;SDS011;59274;49.874;9.154;2024-03-23T02:26:54;14.68;;;7.40;;
71464;SDS011;59274;49.874;9.154;2024-03-23T02:29:19;13.13;;;7.10;;
71464;SDS011;59274;49.874;9.154;2024-03-23T02:31:45;14.60;;;7.70;;
71464;SDS011;59274;49.874;9.154;2024-03-23T02:34:11;12.63;;;6.83;;
71464;SDS011;59274;49.874;9.154;2024-03-23T02:36:36;13.77;;;7.30;;
71464;SDS011;59274;49.874;9.154;2024-03-23T02:39:02;14.80;;;7.65;;
71464;SDS011;59274;49.874;9.154;2024-03-23T02:41:27;14.03;;;7.57;;
71464;SDS011;59274;49.874;9.154;2024-03-23T02:43:52;15.70;;;7.40;;
71464;SDS011;59274;49.874;9.154;2024-03-23T02:46:18;13.27;;;6.90;;
71464;SDS011;59274;49.874;9.154;2024-03-23T02:48:43;14.20;;;7.33;;
71464;SDS011;59274;49.874;9.154;2024-03-23T02:51:09;14.10;;;7.60;;
71464;SDS011;59274;49.874;9.154;2024-03-23T02:53:34;14.55;;;7.82;;
71464;SDS011;59274;49.874;9.154;2024-03-23T02:56:00;14.50;;;7.90;;
71464;SDS011;59274;49.874;9.154;2024-03-23T02:58:25;12.27;;;7.80;;
71464;SDS011;59274;49.874;9.154;2024-03-23T03:00:51;12.97;;;7.37;;
71464;SDS011;59274;49.874;9.154;2024-03-23T03:03:16;14.87;;;7.90;;
71464;SDS011;59274;49.874;9.154;2024-03-23T03:05:42;15.45;;;8.35;;
71464;SDS011;59274;49.874;9.154;2024-03-23T03:08:08;15.20;;;8.17;;
71464;SDS011;59274;49.874;9.154;2024-03-23T03:10:33;14.73;;;7.73;;
71464;SDS011;59274;49.874;9.154;2024-03-23T03:13:01;12.38;;;7.05;;
71464;SDS011;59274;49.874;9.154;2024-03-23T03:15:26;14.73;;;8.00;;
71464;SDS011;59274;49.874;9.154;2024-03-23T03:17:52;14.40;;;7.53;;
71464;SDS011;59274;49.874;9.154;2024-03-23T03:20:17;13.23;;;7.47;;
71464;SDS011;59274;49.874;9.154;2024-03-23T03:22:43;17.02;;;7.75;;
71464;SDS011;59274;49.874;9.154;2024-03-23T03:25:09;12.52;;;7.25;;
71464;SDS011;59274;49.874;9.154;2024-03-23T03:27:34;14.80;;;7.20;;
71464;SDS011;59274;49.874;9.154;2024-03-23T03:30:00;13.50;;;7.65;;
71464;SDS011;59274;49.874;9.154;2024-03-23T03:32:28;12.73;;;7.57;;
71464;SDS011;59274;49.874;9.154;2024-03-23T03:34:54;16.38;;;7.88;;
71464;SDS011;59274;49.874;9.154;2024-03-23T03:37:19;14.43;;;7.80;;
71464;SDS011;59274;49.874;9.154;2024-03-23T03:39:45;16.27;;;7.97;;
71464;SDS011;59274;49.874;9.154;2024-03-23T03:42:10;15.48;;;7.65;;
71464;SDS011;59274;49.874;9.154;2024-03-23T03:44:35;17.17;;;8.00;;
71464;SDS011;59274;49.874;9.154;2024-03-23T03:47:01;14.70;;;7.93;;
71464;SDS011;59274;49.874;9.154;2024-03-23T03:49:27;13.53;;;8.03;;
71464;SDS011;59274;49.874;9.154;2024-03-23T03:51:53;13.93;;;7.73;;
71464;SDS011;59274;49.874;9.154;2024-03-23T03:54:18;14.63;;;8.53;;
71464;SDS011;59274;49.874;9.154;2024-03-23T03:56:43;14.32;;;8.05;;
71464;SDS011;59274;49.874;9.154;2024-03-23T03:59:09;16.60;;;8.67;;
71464;SDS011;59274;49.874;9.154;2024-03-23T04:01:34;15.07;;;8.90;;
71464;SDS011;59274;49.874;9.154;2024-03-23T04:04:00;19.05;;;9.13;;
71464;SDS011;59274;49.874;9.154;2024-03-23T04:06:26;15.65;;;8.80;;
71464;SDS011;59274;49.874;9.154;2024-03-23T04:08:51;19.70;;;9.00;;
71464;SDS011;59274;49.874;9.154;2024-03-23T04:11:17;15.80;;;8.57;;
71464;SDS011;59274;49.874;9.154;2024-03-23T04:13:43;17.73;;;8.68;;
71464;SDS011;59274;49.874;9.154;2024-03-23T04:16:08;18.37;;;9.60;;
71464;SDS011;59274;49.874;9.154;2024-03-23T04:18:34;20.38;;;9.55;;
71464;SDS011;59274;49.874;9.154;2024-03-23T04:21:00;17.50;;;9.33;;
71464;SDS011;59274;49.874;9.154;2024-03-23T04:23:25;15.43;;;8.75;;
71464;SDS011;59274;49.874;9.154;2024-03-23T04:25:51;15.57;;;8.43;;
71464;SDS011;59274;49.874;9.154;2024-03-23T04:28:18;17.80;;;8.52;;
71464;SDS011;59274;49.874;9.154;2024-03-23T04:30:44;15.65;;;8.95;;
71464;SDS011;59274;49.874;9.154;2024-03-23T04:33:10;15.67;;;8.53;;
71464;SDS011;59274;49.874;9.154;2024-03-23T04:35:35;16.70;;;9.17;;
71464;SDS011;59274;49.874;9.154;2024-03-23T04:38:01;16.27;;;8.07;;
71464;SDS011;59274;49.874;9.154;2024-03-23T04:40:26;16.05;;;8.65;;
71464;SDS011;59274;49.874;9.154;2024-03-23T04:42:51;14.80;;;8.80;;
71464;SDS011;59274;49.874;9.154;2024-03-23T04:45:17;15.43;;;8.40;;
71464;SDS011;59274;49.874;9.154;2024-03-23T04:47:42;17.75;;;8.52;;
71464;SDS011;59274;49.874;9.154;2024-03-23T04:50:08;16.88;;;8.73;;
71464;SDS011;59274;49.874;9.154;2024-03-23T04:52:35;16.23;;;9.10;;
71464;SDS011;59274;49.874;9.154;2024-03-23T04:55:01;18.35;;;9.85;;
71464;SDS011;59274;49.874;9.154;2024-03-23T04:57:26;17.13;;;9.37;;
71464;SDS011;59274;49.874;9.154;2024-03-23T04:59:51;17.30;;;9.00;;
71464;SDS011;59274;49.874;9.154;2024-03-23T05:02:17;16.73;;;8.57;;
71464;SDS011;59274;49.874;9.154;2024-03-23T05:04:42;18.17;;;8.60;;
71464;SDS011;59274;49.874;9.154;2024-03-23T05:07:08;20.00;;;9.40;;
71464;SDS011;59274;49.874;9.154;2024-03-23T05:09:33;17.35;;;8.65;;
71464;SDS011;59274;49.874;9.154;2024-03-23T05:12:01;19.43;;;9.07;;
71464;SDS011;59274;49.874;9.154;2024-03-23T05:14:27;17.88;;;9.20;;
71464;SDS011;59274;49.874;9.154;2024-03-23T05:16:53;21.87;;;10.67;;
71464;SDS011;59274;49.874;9.154;2024-03-23T05:19:19;24.27;;;11.73;;
71464;SDS011;59274;49.874;9.154;2024-03-23T05:21:44;25.63;;;12.73;;
71464;SDS011;59274;49.874;9.154;2024-03-23T05:24:10;26.60;;;13.02;;
71464;SDS011;59274;49.874;9.154;2024-03-23T05:26:37;29.97;;;14.30;;
71464;SDS011;59274;49.874;9.154;2024-03-23T05:29:02;24.33;;;11.50;;
71464;SDS011;59274;49.874;9.154;2024-03-23T05:31:28;23.90;;;10.50;;
71464;SDS011;59274;49.874;9.154;2024-03-23T05:33:55;22.13;;;10.57;;
71464;SDS011;59274;49.874;9.154;2024-03-23T05:36:21;21.63;;;10.23;;
71464;SDS011;59274;49.874;9.154;2024-03-23T05:38:47;21.10;;;7.70;;
71464;SDS011;59274;49.874;9.154;2024-03-23T05:41:13;19.75;;;7.78;;
71464;SDS011;59274;49.874;9.154;2024-03-23T05:43:38;12.50;;;5.03;;
71464;SDS011;59274;49.874;9.154;2024-03-23T05:46:04;10.60;;;4.33;;
71464;SDS011;59274;49.874;9.154;2024-03-23T05:48:30;9.73;;;4.07;;
71464;SDS011;59274;49.874;9.154;2024-03-23T05:50:57;8.07;;;2.60;;
71464;SDS011;59274;49.874;9.154;2024-03-23T05:53:22;5.83;;;2.40;;
71464;SDS011;59274;49.874;9.154;2024-03-23T05:55:49;4.93;;;1.70;;
71464;SDS011;59274;49.874;9.154;2024-03-23T05:58:15;3.50;;;1.52;;
71464;SDS011;59274;49.874;9.154;2024-03-23T06:00:41;3.97;;;1.83;;
71464;SDS011;59274;49.874;9.154;2024-03-23T06:03:10;4.67;;;1.40;;
71464;SDS011;59274;49.874;9.154;2024-03-23T06:05:36;5.28;;;2.10;;
71464;SDS011;59274;49.874;9.154;2024-03-23T06:08:02;4.03;;;1.60;;
71464;SDS011;59274;49.874;9.154;2024-03-23T06:10:28;2.87;;;1.47;;
71464;SDS011;59274;49.874;9.154;2024-03-23T06:12:56;3.70;;;1.73;;
71464;SDS011;59274;49.874;9.154;2024-03-23T06:15:23;3.83;;;1.53;;
71464;SDS011;59274;49.874;9.154;2024-03-23T06:17:49;3.22;;;1.48;;
71464;SDS011;59274;49.874;9.154;2024-03-23T06:20:14;5.40;;;1.90;;
71464;SDS011;59274;49.874;9.154;2024-03-23T06:22:40;6.50;;;1.83;;
71464;SDS011;59274;49.874;9.154;2024-03-23T06:25:06;4.63;;;1.90;;
71464;SDS011;59274;49.874;9.154;2024-03-23T06:27:32;3.80;;;1.57;;
71464;SDS011;59274;49.874;9.154;2024-03-23T06:29:58;4.10;;;1.90;;
71464;SDS011;59274;49.874;9.154;2024-03-23T06:32:27;6.07;;;2.00;;
71464;SDS011;59274;49.874;9.154;2024-03-23T06:34:54;4.50;;;1.93;;
71464;SDS011;59274;49.874;9.154;2024-03-23T06:37:19;5.10;;;2.10;;
71464;SDS011;59274;49.874;9.154;2024-03-23T06:39:45;5.33;;;2.20;;
71464;SDS011;59274;49.874;9.154;2024-03-23T06:42:11;4.28;;;1.95;;
71464;SDS011;59274;49.874;9.154;2024-03-23T06:44:36;4.70;;;2.20;;
71464;SDS011;59274;49.874;9.154;2024-03-23T06:47:02;4.37;;;2.23;;
71464;SDS011;59274;49.874;9.154;2024-03-23T06:49:27;5.83;;;2.40;;
71464;SDS011;59274;49.874;9.154;2024-03-23T06:51:53;12.32;;;2.60;;
71464;SDS011;59274;49.874;9.154;2024-03-23T06:54:19;5.90;;;2.50;;
71464;SDS011;59274;49.874;9.154;2024-03-23T06:56:44;5.63;;;2.60;;
71464;SDS011;59274;49.874;9.154;2024-03-23T06:59:10;6.67;;;2.80;;
71464;SDS011;59274;49.874;9.154;2024-03-23T07:01:36;5.70;;;2.50;;
71464;SDS011;59274;49.874;9.154;2024-03-23T07:04:01;5.47;;;2.78;;
71464;SDS011;59274;49.874;9.154;2024-03-23T07:06:27;6.32;;;2.83;;
71464;SDS011;59274;49.874;9.154;2024-03-23T07:08:53;5.20;;;2.37;;
71464;SDS011;59274;49.874;9.154;2024-03-23T07:11:22;6.10;;;2.75;;
71464;SDS011;59274;49.874;9.154;2024-03-23T07:13:51;5.70;;;2.47;;
71464;SDS011;59274;49.874;9.154;2024-03-23T07:16:19;4.70;;;1.98;;
71464;SDS011;59274;49.874;9.154;2024-03-23T07:18:45;4.90;;;2.20;;
71464;SDS011;59274;49.874;9.154;2024-03-23T07:21:11;4.33;;;2.00;;
71464;SDS011;59274;49.874;9.154;2024-03-23T07:23:36;3.72;;;1.90;;
71464;SDS011;59274;49.874;9.154;2024-03-23T07:26:03;3.95;;;1.75;;
71464;SDS011;59274;49.874;9.154;2024-03-23T07:28:30;4.05;;;1.77;;
71464;SDS011;59274;49.874;9.154;2024-03-23T07:33:28;2.88;;;1.40;;
71464;SDS011;59274;49.874;9.154;2024-03-23T07:35:54;5.57;;;1.40;;
71464;SDS011;59274;49.874;9.154;2024-03-23T07:38:19;2.30;;;1.20;;
71464;SDS011;59274;49.874;9.154;2024-03-23T07:40:45;2.43;;;1.30;;
71464;SDS011;59274;49.874;9.154;2024-03-23T07:43:10;2.53;;;1.10;;
71464;SDS011;59274;49.874;9.154;2024-03-23T07:45:36;1.63;;;1.08;;
71464;SDS011;59274;49.874;9.154;2024-03-23T07:48:03;2.10;;;1.03;;
71464;SDS011;59274;49.874;9.154;2024-03-23T07:50:29;1.52;;;1.10;;
71464;SDS011;59274;49.874;9.154;2024-03-23T07:52:54;2.07;;;1.20;;
71464;SDS011;59274;49.874;9.154;2024-03-23T07:55:20;2.60;;;1.10;;
71464;SDS011;59274;49.874;9.154;2024-03-23T07:57:46;2.22;;;0.93;;
71464;SDS011;59274;49.874;9.154;2024-03-23T08:00:11;2.70;;;1.43;;
71464;SDS011;59274;49.874;9.154;2024-03-23T08:02:38;1.80;;;1.00;;
71464;SDS011;59274;49.874;9.154;2024-03-23T08:05:04;2.13;;;1.20;;
71464;SDS011;59274;49.874;9.154;2024-03-23T08:07:29;5.38;;;2.30;;
71464;SDS011;59274;49.874;9.154;2024-03-23T08:09:55;6.00;;;2.50;;
71464;SDS011;59274;49.874;9.154;2024-03-23T08:12:20;3.90;;;1.90;;
71464;SDS011;59274;49.874;9.154;2024-03-23T08:14:45;3.78;;;1.70;;
71464;SDS011;59274;49.874;9.154;2024-03-23T08:17:11;4.55;;;1.83;;
71464;SDS011;59274;49.874;9.154;2024-03-23T08:19:36;2.97;;;1.50;;
71464;SDS011;59274;49.874;9.154;2024-03-23T08:22:02;4.70;;;1.63;;
71464;SDS011;59274;49.874;9.154;2024-03-23T08:24:28;3.85;;;1.42;;
71464;SDS011;59274;49.874;9.154;2024-03-23T08:26:54;3.13;;;1.40;;
71464;SDS011;59274;49.874;9.154;2024-03-23T08:29:19;6.63;;;2.00;;
71464;SDS011;59274;49.874;9.154;2024-03-23T08:31:45;6.20;;;2.43;;
71464;SDS011;59274;49.874;9.154;2024-03-23T08:34:10;11.30;;;3.77;;
71464;SDS011;59274;49.874;9.154;2024-03-23T08:36:36;7.30;;;2.40;;
71464;SDS011;59274;49.874;9.154;2024-03-23T08:39:01;4.67;;;1.70;;
71464;SDS011;59274;49.874;9.154;2024-03-23T08:41:26;10.07;;;3.25;;
71464;SDS011;59274;49.874;9.154;2024-03-23T08:43:52;10.48;;;2.95;;
71464;SDS011;59274;49.874;9.154;2024-03-23T08:46:17;6.13;;;2.33;;
71464;SDS011;59274;49.874;9.154;2024-03-23T08:48:46;9.03;;;3.03;;
71464;SDS011;59274;49.874;9.154;2024-03-23T08:51:14;9.23;;;3.08;;
71464;SDS011;59274;49.874;9.154;2024-03-23T08:53:41;8.70;;;2.80;;
71464;SDS011;59274;49.874;9.154;2024-03-23T08:56:07;8.00;;;2.80;;
71464;SDS011;59274;49.874;9.154;2024-03-23T08:58:34;8.15;;;2.80;;
71464;SDS011;59274;49.874;9.154;2024-03-23T09:01:03;9.55;;;3.17;;
71464;SDS011;59274;49.874;9.154;2024-03-23T09:03:29;10.43;;;3.33;;
71464;SDS011;59274;49.874;9.154;2024-03-23T09:05:54;8.07;;;2.97;;
71464;SDS011;59274;49.874;9.154;2024-03-23T09:08:21;7.60;;;2.20;;
71464;SDS011;59274;49.874;9.154;2024-03-23T09:10:47;8.47;;;3.63;;
71464;SDS011;59274;49.874;9.154;2024-03-23T09:13:13;12.80;;;3.88;;
71464;SDS011;59274;49.874;9.154;2024-03-23T09:15:45;10.52;;;3.72;;
71464;SDS011;59274;49.874;9.154;2024-03-23T09:18:14;10.85;;;3.50;;
71464;SDS011;59274;49.874;9.154;2024-03-23T09:20:40;20.40;;;10.07;;
71464;SDS011;59274;49.874;9.154;2024-03-23T09:23:05;20.40;;;6.77;;
71464;SDS011;59274;49.874;9.154;2024-03-23T09:25:31;27.33;;;7.75;;
71464;SDS011;59274;49.874;9.154;2024-03-23T09:27:56;52.17;;;14.40;;
71464;SDS011;59274;49.874;9.154;2024-03-23T09:30:23;12.20;;;3.90;;
71464;SDS011;59274;49.874;9.154;2024-03-23T09:32:48;22.67;;;7.07;;
71464;SDS011;59274;49.874;9.154;2024-03-23T09:35:14;14.47;;;5.33;;
71464;SDS011;59274;49.874;9.154;2024-03-23T09:37:39;12.18;;;4.40;;
71464;SDS011;59274;49.874;9.154;2024-03-23T09:40:07;8.27;;;3.03;;
71464;SDS011;59274;49.874;9.154;2024-03-23T09:42:35;9.30;;;3.17;;
71464;SDS011;59274;49.874;9.154;2024-03-23T09:45:06;13.90;;;5.97;;
71464;SDS011;59274;49.874;9.154;2024-03-23T09:47:41;7.97;;;3.40;;
71464;SDS011;59274;49.874;9.154;2024-03-23T09:50:07;8.90;;;3.58;;
71464;SDS011;59274;49.874;9.154;2024-03-23T09:52:34;8.73;;;3.28;;
71464;SDS011;59274;49.874;9.154;2024-03-23T09:54:59;9.70;;;3.60;;
71464;SDS011;59274;49.874;9.154;2024-03-23T09:57:25;7.43;;;3.10;;
71464;SDS011;59274;49.874;9.154;2024-03-23T09:59:51;6.22;;;2.58;;
71464;SDS011;59274;49.874;9.154;2024-03-23T10:02:16;7.43;;;2.93;;
71464;SDS011;59274;49.874;9.154;2024-03-23T10:04:42;7.18;;;3.20;;
71464;SDS011;59274;49.874;9.154;2024-03-23T10:07:15;9.77;;;2.83;;
71464;SDS011;59274;49.874;9.154;2024-03-23T10:09:43;9.18;;;2.80;;
71464;SDS011;59274;49.874;9.154;2024-03-23T10:12:13;8.67;;;3.23;;
71464;SDS011;59274;49.874;9.154;2024-03-23T10:14:40;10.32;;;3.13;;
71464;SDS011;59274;49.874;9.154;2024-03-23T10:17:12;12.13;;;3.60;;
71464;SDS011;59274;49.874;9.154;2024-03-23T10:19:50;7.53;;;3.13;;
71464;SDS011;59274;49.874;9.154;2024-03-23T10:22:20;11.00;;;3.00;;
71464;SDS011;59274;49.874;9.154;2024-03-23T10:24:47;7.28;;;2.45;;
71464;SDS011;59274;49.874;9.154;2024-03-23T10:27:17;7.07;;;2.83;;
71464;SDS011;59274;49.874;9.154;2024-03-23T10:29:44;8.77;;;2.60;;
71464;SDS011;59274;49.874;9.154;2024-03-23T10:32:10;12.70;;;3.03;;
71464;SDS011;59274;49.874;9.154;2024-03-23T10:34:37;9.87;;;3.10;;
71464;SDS011;59274;49.874;9.154;2024-03-23T10:37:04;8.85;;;3.33;;
71464;SDS011;59274;49.874;9.154;2024-03-23T10:39:36;9.18;;;3.33;;
71464;SDS011;59274;49.874;9.154;2024-03-23T10:42:07;11.32;;;2.45;;
71464;SDS011;59274;49.874;9.154;2024-03-23T10:44:36;7.22;;;2.70;;
71464;SDS011;59274;49.874;9.154;2024-03-23T10:47:02;8.03;;;2.60;;
71464;SDS011;59274;49.874;9.154;2024-03-23T10:49:28;8.88;;;3.00;;
71464;SDS011;59274;49.874;9.154;2024-03-23T10:51:55;9.48;;;3.10;;
71464;SDS011;59274;49.874;9.154;2024-03-23T10:54:25;9.07;;;2.58;;
71464;SDS011;59274;49.874;9.154;2024-03-23T10:56:56;9.93;;;2.88;;
71464;SDS011;59274;49.874;9.154;2024-03-23T10:59:26;7.63;;;2.57;;
71464;SDS011;59274;49.874;9.154;2024-03-23T11:07:03;7.80;;;2.63;;
71464;SDS011;59274;49.874;9.154;2024-03-23T11:09:48;8.57;;;2.60;;
71464;SDS011;59274;49.874;9.154;2024-03-23T11:14:50;8.48;;;2.53;;
71464;SDS011;59274;49.874;9.154;2024-03-23T11:17:18;7.22;;;2.80;;
71464;SDS011;59274;49.874;9.154;2024-03-23T11:19:44;9.13;;;2.97;;
71464;SDS011;59274;49.874;9.154;2024-03-23T11:22:46;7.63;;;2.40;;
71464;SDS011;59274;49.874;9.154;2024-03-23T11:27:49;6.65;;;2.72;;
71464;SDS011;59274;49.874;9.154;2024-03-23T11:30:19;9.82;;;2.72;;
71464;SDS011;59274;49.874;9.154;2024-03-23T11:32:46;10.32;;;3.10;;
71464;SDS011;59274;49.874;9.154;2024-03-23T11:35:24;5.87;;;2.43;;
71464;SDS011;59274;49.874;9.154;2024-03-23T11:38:06;6.78;;;2.60;;
71464;SDS011;59274;49.874;9.154;2024-03-23T11:40:49;5.75;;;1.92;;
71464;SDS011;59274;49.874;9.154;2024-03-23T11:43:15;5.13;;;1.80;;
71464;SDS011;59274;49.874;9.154;2024-03-23T11:45:47;4.18;;;1.40;;
71464;SDS011;59274;49.874;9.154;2024-03-23T11:48:18;12.73;;;2.00;;
71464;SDS011;59274;49.874;9.154;2024-03-23T11:50:48;5.47;;;1.45;;
71464;SDS011;59274;49.874;9.154;2024-03-23T11:53:18;7.05;;;1.50;;
71464;SDS011;59274;49.874;9.154;2024-03-23T11:58:13;9.20;;;1.30;;
71464;SDS011;59274;49.874;9.154;2024-03-23T12:00:39;6.63;;;1.30;;
71464;SDS011;59274;49.874;9.154;2024-03-23T12:03:05;5.47;;;1.33;;
71464;SDS011;59274;49.874;9.154;2024-03-23T12:05:31;3.72;;;1.30;;
71464;SDS011;59274;49.874;9.154;2024-03-23T12:10:43;6.28;;;1.80;;
71464;SDS011;59274;49.874;9.154;2024-03-23T12:13:11;6.32;;;1.55;;
71464;SDS011;59274;49.874;9.154;2024-03-23T12:15:36;4.30;;;1.53;;
71464;SDS011;59274;49.874;9.154;2024-03-23T12:18:08;5.40;;;1.30;;
71464;SDS011;59274;49.874;9.154;2024-03-23T12:20:35;6.78;;;1.48;;
71464;SDS011;59274;49.874;9.154;2024-03-23T12:23:05;6.80;;;1.58;;
71464;SDS011;59274;49.874;9.154;2024-03-23T12:25:35;4.05;;;1.33;;
71464;SDS011;59274;49.874;9.154;2024-03-23T12:28:01;6.97;;;1.50;;
71464;SDS011;59274;49.874;9.154;2024-03-23T12:30:26;3.63;;;1.38;;
71464;SDS011;59274;49.874;9.154;2024-03-23T12:32:52;4.07;;;1.60;;
71464;SDS011;59274;49.874;9.154;2024-03-23T12:35:17;4.67;;;1.90;;
71464;SDS011;59274;49.874;9.154;2024-03-23T12:37:43;6.93;;;1.75;;
71464;SDS011;59274;49.874;9.154;2024-03-23T12:40:09;5.83;;;1.60;;
71464;SDS011;59274;49.874;9.154;2024-03-23T12:42:35;5.35;;;1.30;;
71464;SDS011;59274;49.874;9.154;2024-03-23T12:45:00;6.73;;;1.47;;
71464;SDS011;59274;49.874;9.154;2024-03-23T12:47:26;8.48;;;1.70;;
71464;SDS011;59274;49.874;9.154;2024-03-23T12:49:52;6.63;;;1.87;;
71464;SDS011;59274;49.874;9.154;2024-03-23T12:52:17;8.25;;;2.00;;
71464;SDS011;59274;49.874;9.154;2024-03-23T12:54:43;6.80;;;2.33;;
71464;SDS011;59274;49.874;9.154;2024-03-23T12:57:08;6.60;;;1.97;;
71464;SDS011;59274;49.874;9.154;2024-03-23T12:59:33;7.37;;;2.03;;
71464;SDS011;59274;49.874;9.154;2024-03-23T13:02:00;6.57;;;1.95;;
71464;SDS011;59274;49.874;9.154;2024-03-23T13:04:26;5.87;;;1.93;;
71464;SDS011;59274;49.874;9.154;2024-03-23T13:06:51;4.65;;;1.90;;
71464;SDS011;59274;49.874;9.154;2024-03-23T13:09:16;5.97;;;1.77;;
71464;SDS011;59274;49.874;9.154;2024-03-23T13:11:42;5.23;;;1.77;;
71464;SDS011;59274;49.874;9.154;2024-03-23T13:14:07;7.33;;;2.00;;
71464;SDS011;59274;49.874;9.154;2024-03-23T13:16:33;6.47;;;2.07;;
71464;SDS011;59274;49.874;9.154;2024-03-23T13:18:58;4.20;;;1.65;;
71464;SDS011;59274;49.874;9.154;2024-03-23T13:21:24;5.20;;;1.80;;
71464;SDS011;59274;49.874;9.154;2024-03-23T13:23:49;8.27;;;1.80;;
71464;SDS011;59274;49.874;9.154;2024-03-23T13:26:15;7.32;;;2.13;;
71464;SDS011;59274;49.874;9.154;2024-03-23T13:28:41;5.40;;;1.80;;
71464;SDS011;59274;49.874;9.154;2024-03-23T13:31:07;6.57;;;1.80;;
71464;SDS011;59274;49.874;9.154;2024-03-23T13:33:33;4.88;;;1.75;;
71464;SDS011;59274;49.874;9.154;2024-03-23T13:35:59;5.87;;;1.40;;
71464;SDS011;59274;49.874;9.154;2024-03-23T13:38:25;5.53;;;1.67;;
71464;SDS011;59274;49.874;9.154;2024-03-23T13:43:19;4.80;;;1.80;;
71464;SDS011;59274;49.874;9.154;2024-03-23T13:45:49;5.68;;;1.65;;
71464;SDS011;59274;49.874;9.154;2024-03-23T13:48:18;3.28;;;1.70;;
71464;SDS011;59274;49.874;9.154;2024-03-23T13:50:45;5.57;;;2.03;;
71464;SDS011;59274;49.874;9.154;2024-03-23T13:53:12;4.23;;;1.47;;
71464;SDS011;59274;49.874;9.154;2024-03-23T13:55:38;5.18;;;1.58;;
71464;SDS011;59274;49.874;9.154;2024-03-23T13:58:11;5.13;;;1.90;;
71464;SDS011;59274;49.874;9.154;2024-03-23T14:00:37;5.97;;;1.95;;
71464;SDS011;59274;49.874;9.154;2024-03-23T14:03:02;4.80;;;1.80;;
71464;SDS011;59274;49.874;9.154;2024-03-23T14:05:28;6.57;;;2.00;;
71464;SDS011;59274;49.874;9.154;2024-03-23T14:07:53;4.13;;;1.83;;
71464;SDS011;59274;49.874;9.154;2024-03-23T14:10:19;24.47;;;12.33;;
71464;SDS011;59274;49.874;9.154;2024-03-23T14:12:44;6.57;;;1.90;;
71464;SDS011;59274;49.874;9.154;2024-03-23T14:15:09;4.87;;;1.33;;
71464;SDS011;59274;49.874;9.154;2024-03-23T14:17:35;3.83;;;1.50;;
71464;SDS011;59274;49.874;9.154;2024-03-23T14:20:00;7.22;;;1.98;;
71464;SDS011;59274;49.874;9.154;2024-03-23T14:22:26;8.23;;;2.30;;
71464;SDS011;59274;49.874;9.154;2024-03-23T14:24:53;3.33;;;1.60;;
71464;SDS011;59274;49.874;9.154;2024-03-23T14:27:18;4.53;;;1.53;;
71464;SDS011;59274;49.874;9.154;2024-03-23T14:29:47;4.55;;;1.67;;
71464;SDS011;59274;49.874;9.154;2024-03-23T14:32:13;4.88;;;2.00;;
71464;SDS011;59274;49.874;9.154;2024-03-23T14:34:40;3.83;;;1.77;;
71464;SDS011;59274;49.874;9.154;2024-03-23T14:37:05;3.97;;;1.70;;
71464;SDS011;59274;49.874;9.154;2024-03-23T14:39:31;4.07;;;1.50;;
71464;SDS011;59274;49.874;9.154;2024-03-23T14:42:00;3.23;;;1.70;;
71464;SDS011;59274;49.874;9.154;2024-03-23T14:44:26;3.75;;;1.77;;
71464;SDS011;59274;49.874;9.154;2024-03-23T14:46:53;5.65;;;2.13;;
71464;SDS011;59274;49.874;9.154;2024-03-23T14:49:20;2.92;;;1.92;;
71464;SDS011;59274;49.874;9.154;2024-03-23T14:51:45;5.13;;;1.87;;
71464;SDS011;59274;49.874;9.154;2024-03-23T14:54:11;3.72;;;1.55;;
71464;SDS011;59274;49.874;9.154;2024-03-23T14:56:38;4.37;;;2.33;;
71464;SDS011;59274;49.874;9.154;2024-03-23T14:59:03;5.72;;;2.20;;
71464;SDS011;59274;49.874;9.154;2024-03-23T15:01:29;4.80;;;1.60;;
71464;SDS011;59274;49.874;9.154;2024-03-23T15:03:54;4.07;;;2.03;;
71464;SDS011;59274;49.874;9.154;2024-03-23T15:06:20;4.25;;;1.85;;
71464;SDS011;59274;49.874;9.154;2024-03-23T15:08:45;5.40;;;1.80;;
71464;SDS011;59274;49.874;9.154;2024-03-23T15:11:10;5.67;;;1.80;;
71464;SDS011;59274;49.874;9.154;2024-03-23T15:13:36;4.30;;;1.87;;
71464;SDS011;59274;49.874;9.154;2024-03-23T15:16:03;4.35;;;1.88;;
71464;SDS011;59274;49.874;9.154;2024-03-23T15:18:29;5.35;;;2.10;;
71464;SDS011;59274;49.874;9.154;2024-03-23T15:20:55;5.90;;;1.93;;
71464;SDS011;59274;49.874;9.154;2024-03-23T15:23:21;5.95;;;2.00;;
71464;SDS011;59274;49.874;9.154;2024-03-23T15:25:54;3.42;;;1.83;;
71464;SDS011;59274;49.874;9.154;2024-03-23T15:28:28;4.47;;;2.10;;
71464;SDS011;59274;49.874;9.154;2024-03-23T15:31:05;2.97;;;1.88;;
71464;SDS011;59274;49.874;9.154;2024-03-23T15:33:32;5.05;;;1.70;;
71464;SDS011;59274;49.874;9.154;2024-03-23T15:36:01;3.88;;;1.40;;
71464;SDS011;59274;49.874;9.154;2024-03-23T15:38:27;3.88;;;1.33;;
71464;SDS011;59274;49.874;9.154;2024-03-23T15:40:54;2.00;;;1.20;;
71464;SDS011;59274;49.874;9.154;2024-03-23T15:43:20;3.45;;;1.08;;
71464;SDS011;59274;49.874;9.154;2024-03-23T15:45:55;3.42;;;1.65;;
71464;SDS011;59274;49.874;9.154;2024-03-23T15:48:21;5.60;;;1.92;;
71464;SDS011;59274;49.874;9.154;2024-03-23T15:50:50;2.10;;;1.13;;